createdAt,value
2023-01-29T00:00:14.255Z,-0.57
2023-01-29T00:03:02.659Z,-0.48
2023-01-29T00:05:30.853Z,-0.46
2023-01-29T00:07:59.035Z,-0.51
2023-01-29T00:10:27.202Z,-0.55
2023-01-29T00:12:55.389Z,-0.57
2023-01-29T00:15:23.830Z,-0.57
2023-01-29T00:17:51.831Z,-0.59
2023-01-29T00:20:20.130Z,-0.62
2023-01-29T00:22:48.284Z,-0.66
2023-01-29T00:25:16.395Z,-0.67
2023-01-29T00:27:44.996Z,-0.67
2023-01-29T00:30:13.738Z,-0.65
2023-01-29T00:32:42.291Z,-0.66
2023-01-29T00:35:11.242Z,-0.69
2023-01-29T00:37:39.206Z,-0.74
2023-01-29T00:40:08.097Z,-0.80
2023-01-29T00:42:55.051Z,-0.83
2023-01-29T00:45:23.132Z,-0.85
2023-01-29T00:47:51.093Z,-0.87
2023-01-29T00:50:19.464Z,-0.88
2023-01-29T00:52:49.706Z,-0.92
2023-01-29T00:55:18.015Z,-0.92
2023-01-29T00:57:47.272Z,-0.93
2023-01-29T01:00:18.011Z,-0.93
2023-01-29T01:03:05.601Z,-0.94
2023-01-29T01:05:34.775Z,-0.96
2023-01-29T01:08:02.826Z,-0.99
2023-01-29T01:10:32.862Z,-1.04
2023-01-29T01:13:03.523Z,-1.10
2023-01-29T01:15:35.089Z,-1.13
2023-01-29T01:18:04.701Z,-1.16
2023-01-29T01:20:35.127Z,-1.19
2023-01-29T01:23:04.105Z,-1.20
2023-01-29T01:25:32.129Z,-1.21
2023-01-29T01:28:03.302Z,-1.20
2023-01-29T01:30:33.074Z,-1.20
2023-01-29T01:33:01.995Z,-1.19
2023-01-29T01:35:30.046Z,-1.18
2023-01-29T01:37:58.045Z,-1.16
2023-01-29T01:40:26.304Z,-1.14
2023-01-29T01:42:57.861Z,-1.12
2023-01-29T01:45:35.835Z,-1.11
2023-01-29T01:48:04.020Z,-1.09
2023-01-29T01:51:01.635Z,-1.08
2023-01-29T01:53:32.323Z,-1.06
2023-01-29T01:56:07.929Z,-1.01
2023-01-29T01:58:50.731Z,-0.95
2023-01-29T02:01:26.879Z,-0.89
2023-01-29T02:04:27.878Z,-0.84
2023-01-29T02:07:17.537Z,-0.77
2023-01-29T02:09:52.644Z,-0.74
2023-01-29T02:12:21.688Z,-0.70
2023-01-29T02:14:51.582Z,-0.67
2023-01-29T02:17:20.720Z,-0.63
2023-01-29T02:20:18.516Z,-0.57
2023-01-29T02:23:11.310Z,-0.46
2023-01-29T02:25:45.447Z,-0.41
2023-01-29T02:28:22.315Z,-0.42
2023-01-29T02:31:00.557Z,-0.39
2023-01-29T02:33:47.659Z,-0.35
2023-01-29T02:36:32.916Z,-0.29
2023-01-29T02:39:17.854Z,-0.24
2023-01-29T02:42:17.244Z,-0.25
2023-01-29T02:44:52.381Z,-0.30
2023-01-29T02:47:45.346Z,-0.37
2023-01-29T02:50:26.137Z,-0.43
2023-01-29T02:53:09.578Z,-0.50
2023-01-29T02:55:55.166Z,-0.57
2023-01-29T02:58:38.693Z,-0.63
2023-01-29T03:02:11.772Z,-0.67
2023-01-29T03:04:46.698Z,-0.66
2023-01-29T03:07:42.677Z,-0.67
2023-01-29T03:10:18.567Z,-0.64
2023-01-29T03:12:55.749Z,-0.60
2023-01-29T03:15:29.371Z,-0.59
2023-01-29T03:18:18.121Z,-0.61
2023-01-29T03:20:50.523Z,-0.60
2023-01-29T03:23:27.366Z,-0.59
2023-01-29T03:26:17.545Z,-0.62
2023-01-29T03:29:06.533Z,-0.68
2023-01-29T03:31:55.258Z,-0.75
2023-01-29T03:34:39.005Z,-0.79
2023-01-29T03:37:14.562Z,-0.87
2023-01-29T03:39:42.743Z,-0.94
2023-01-29T03:42:30.242Z,-1.03
2023-01-29T03:45:08.700Z,-1.12
2023-01-29T03:47:49.267Z,-1.18
2023-01-29T03:50:48.504Z,-1.20
2023-01-29T03:53:36.975Z,-1.27
2023-01-29T03:56:33.381Z,-1.37
2023-01-29T03:59:30.568Z,-1.42
2023-01-29T04:02:47.452Z,-1.42
2023-01-29T04:05:23.017Z,-1.43
2023-01-29T04:08:23.895Z,-1.41
2023-01-29T04:10:56.253Z,-1.40
2023-01-29T04:13:25.742Z,-1.39
2023-01-29T04:15:58.529Z,-1.38
2023-01-29T04:18:56.736Z,-1.38
2023-01-29T04:21:33.097Z,-1.39
2023-01-29T04:24:01.141Z,-1.39
2023-01-29T04:26:49.909Z,-1.39
2023-01-29T04:29:33.429Z,-1.39
2023-01-29T04:32:31.398Z,-1.39
2023-01-29T04:35:32.056Z,-1.38
2023-01-29T04:38:30.249Z,-1.38
2023-01-29T04:41:16.530Z,-1.39
2023-01-29T04:43:49.419Z,-1.38
2023-01-29T04:46:21.489Z,-1.39
2023-01-29T04:48:58.626Z,-1.40
2023-01-29T04:51:40.525Z,-1.41
2023-01-29T04:54:52.753Z,-1.43
2023-01-29T04:57:48.488Z,-1.44
2023-01-29T05:00:21.529Z,-1.45
2023-01-29T05:02:50.110Z,-1.46
2023-01-29T05:05:20.669Z,-1.45
2023-01-29T05:07:49.721Z,-1.44
2023-01-29T05:10:20.419Z,-1.42
2023-01-29T05:12:55.868Z,-1.41
2023-01-29T05:15:29.411Z,-1.39
2023-01-29T05:18:01.915Z,-1.36
2023-01-29T05:20:33.396Z,-1.32
2023-01-29T05:23:01.557Z,-1.30
2023-01-29T05:25:33.062Z,-1.26
2023-01-29T05:28:19.108Z,-1.25
2023-01-29T05:30:50.810Z,-1.24
2023-01-29T05:33:29.433Z,-1.20
2023-01-29T05:35:59.793Z,-1.17
2023-01-29T05:38:27.886Z,-1.14
2023-01-29T05:40:59.427Z,-1.08
2023-01-29T05:43:27.446Z,-1.10
2023-01-29T05:46:01.885Z,-1.13
2023-01-29T05:48:32.270Z,-1.15
2023-01-29T05:51:04.808Z,-1.17
2023-01-29T05:53:33.246Z,-1.18
2023-01-29T05:56:02.927Z,-1.18
2023-01-29T05:58:32.739Z,-1.16
2023-01-29T06:01:14.327Z,-1.17
2023-01-29T06:03:42.839Z,-1.19
2023-01-29T06:06:10.937Z,-1.22
2023-01-29T06:08:39.019Z,-1.28
2023-01-29T06:11:12.377Z,-1.34
2023-01-29T06:13:40.991Z,-1.38
2023-01-29T06:16:10.001Z,-1.42
2023-01-29T06:18:39.323Z,-1.48
2023-01-29T06:21:11.067Z,-1.52
2023-01-29T06:23:39.354Z,-1.57
2023-01-29T06:26:11.555Z,-1.61
2023-01-29T06:28:39.898Z,-1.64
2023-01-29T06:31:24.954Z,-1.66
2023-01-29T06:33:57.100Z,-1.68
2023-01-29T06:36:25.177Z,-1.71
2023-01-29T06:38:53.338Z,-1.75
2023-01-29T06:41:25.512Z,-1.79
2023-01-29T06:43:53.752Z,-1.80
2023-01-29T06:46:21.951Z,-1.80
2023-01-29T06:48:50.042Z,-1.79
2023-01-29T06:51:18.271Z,-1.79
2023-01-29T06:53:46.921Z,-1.80
2023-01-29T06:56:15.094Z,-1.83
2023-01-29T06:58:43.753Z,-1.86
2023-01-29T07:01:19.657Z,-1.87
2023-01-29T07:03:57.360Z,-1.88
2023-01-29T07:06:32.718Z,-1.90
2023-01-29T07:09:01.112Z,-1.91
2023-01-29T07:11:29.468Z,-1.91
2023-01-29T07:14:14.699Z,-1.92
2023-01-29T07:16:45.457Z,-1.92
2023-01-29T07:19:14.061Z,-1.92
2023-01-29T07:21:43.014Z,-1.92
2023-01-29T07:24:11.104Z,-1.94
2023-01-29T07:26:39.247Z,-1.95
2023-01-29T07:29:07.360Z,-1.96
2023-01-29T07:31:35.548Z,-1.96
2023-01-29T07:34:04.122Z,-1.95
2023-01-29T07:36:32.171Z,-1.95
2023-01-29T07:39:00.366Z,-1.95
2023-01-29T07:41:28.456Z,-1.94
2023-01-29T07:43:56.529Z,-1.94
2023-01-29T07:46:25.172Z,-1.90
2023-01-29T07:48:53.425Z,-1.82
2023-01-29T07:51:21.572Z,-1.77
2023-01-29T07:53:49.747Z,-1.73
2023-01-29T07:56:19.288Z,-1.66
2023-01-29T07:58:47.433Z,-1.59
2023-01-29T08:01:15.797Z,-1.54
2023-01-29T08:03:44.147Z,-1.49
2023-01-29T08:06:12.273Z,-1.47
2023-01-29T08:08:40.276Z,-1.44
2023-01-29T08:11:08.894Z,-1.41
2023-01-29T08:13:37.622Z,-1.37
2023-01-29T08:16:06.367Z,-1.32
2023-01-29T08:18:34.384Z,-1.28
2023-01-29T08:21:02.537Z,-1.20
2023-01-29T08:23:31.359Z,-1.11
2023-01-29T08:25:59.477Z,-1.06
2023-01-29T08:28:28.221Z,-1.06
2023-01-29T08:30:56.778Z,-1.09
2023-01-29T08:36:16.767Z,-1.07
2023-01-29T08:38:44.930Z,-1.06
2023-01-29T08:41:13.051Z,-1.01
2023-01-29T08:43:41.245Z,-0.98
2023-01-29T08:46:09.570Z,-0.94
2023-01-29T08:48:37.865Z,-0.91
2023-01-29T08:51:06.758Z,-0.90
2023-01-29T08:53:35.356Z,-0.88
2023-01-29T08:56:04.561Z,-0.88
2023-01-29T08:58:32.632Z,-0.89
2023-01-29T09:01:12.835Z,-0.89
2023-01-29T09:03:43.780Z,-0.88
2023-01-29T09:06:14.108Z,-0.89
2023-01-29T09:08:42.260Z,-0.88
2023-01-29T09:11:11.332Z,-0.93
2023-01-29T09:13:39.508Z,-0.96
2023-01-29T09:16:07.981Z,-0.94
2023-01-29T09:18:36.036Z,-0.96
2023-01-29T09:21:04.944Z,-0.97
2023-01-29T09:23:33.056Z,-1.00
2023-01-29T09:26:01.146Z,-1.00
2023-01-29T09:28:29.095Z,-0.97
2023-01-29T09:30:57.149Z,-0.93
2023-01-29T09:33:26.193Z,-0.91
2023-01-29T09:35:54.937Z,-0.87
2023-01-29T09:38:25.346Z,-0.86
2023-01-29T09:41:06.763Z,-0.87
2023-01-29T09:43:53.404Z,-0.84
2023-01-29T09:46:36.306Z,-0.76
2023-01-29T09:49:29.656Z,-0.75
2023-01-29T09:52:30.304Z,-0.78
2023-01-29T09:55:04.409Z,-0.81
2023-01-29T09:57:51.699Z,-0.81
2023-01-29T10:00:44.474Z,-0.77
2023-01-29T10:03:42.803Z,-0.71
2023-01-29T10:06:43.197Z,-0.64
2023-01-29T10:09:30.162Z,-0.61
2023-01-29T10:11:58.366Z,-0.59
2023-01-29T10:14:38.024Z,-0.59
2023-01-29T10:17:25.985Z,-0.54
2023-01-29T10:20:31.809Z,-0.49
2023-01-29T10:23:27.355Z,-0.48
2023-01-29T10:25:55.777Z,-0.49
2023-01-29T10:28:46.547Z,-0.45
2023-01-29T10:31:36.558Z,-0.39
2023-01-29T10:34:13.016Z,-0.38
2023-01-29T10:36:46.340Z,-0.38
2023-01-29T10:39:22.726Z,-0.39
2023-01-29T10:42:06.398Z,-0.37
2023-01-29T10:44:43.864Z,-0.37
2023-01-29T10:47:30.713Z,-0.38
2023-01-29T10:50:17.180Z,-0.32
2023-01-29T10:53:03.920Z,-0.25
2023-01-29T10:55:54.173Z,-0.23
2023-01-29T10:58:41.936Z,-0.21
2023-01-29T11:01:10.700Z,-0.22
2023-01-29T11:03:38.961Z,-0.20
2023-01-29T11:06:28.694Z,-0.22
2023-01-29T11:09:05.742Z,-0.18
2023-01-29T11:12:13.780Z,-0.11
2023-01-29T11:14:48.180Z,-0.01
2023-01-29T11:17:22.971Z,0.01
2023-01-29T11:19:53.530Z,-0.04
2023-01-29T11:22:29.945Z,-0.15
2023-01-29T11:25:21.021Z,-0.22
2023-01-29T11:28:02.840Z,-0.23
2023-01-29T11:30:50.897Z,-0.24
2023-01-29T11:33:23.733Z,-0.34
2023-01-29T11:35:52.828Z,-0.40
2023-01-29T11:38:29.163Z,-0.45
2023-01-29T11:41:14.825Z,-0.52
2023-01-29T11:43:42.760Z,-0.65
2023-01-29T11:46:16.286Z,-0.75
2023-01-29T11:48:51.708Z,-0.84
2023-01-29T11:51:28.703Z,-0.88
2023-01-29T11:54:04.992Z,-0.88
2023-01-29T11:56:41.693Z,-0.85
2023-01-29T11:59:28.299Z,-0.86
2023-01-29T12:02:04.134Z,-0.98
2023-01-29T12:04:32.208Z,-1.03
2023-01-29T12:07:00.582Z,-1.04
2023-01-29T12:09:30.671Z,-1.04
2023-01-29T12:12:18.456Z,-0.99
2023-01-29T12:14:46.532Z,-0.96
2023-01-29T12:17:20.361Z,-0.93
2023-01-29T12:19:55.371Z,-0.89
2023-01-29T12:23:01.041Z,-0.87
2023-01-29T12:25:56.803Z,-0.86
2023-01-29T12:28:42.892Z,-0.81
2023-01-29T12:31:19.677Z,-0.76
2023-01-29T12:34:29.318Z,-0.70
2023-01-29T12:37:09.845Z,-0.67
2023-01-29T12:39:37.807Z,-0.67
2023-01-29T12:42:18.047Z,-0.65
2023-01-29T12:44:52.124Z,-0.66
2023-01-29T12:47:36.172Z,-0.67
2023-01-29T12:50:19.675Z,-0.69
2023-01-29T12:53:02.590Z,-0.71
2023-01-29T12:55:45.252Z,-0.72
2023-01-29T12:58:16.992Z,-0.73
2023-01-29T13:00:48.668Z,-0.74
2023-01-29T13:03:19.604Z,-0.75
2023-01-29T13:05:52.052Z,-0.78
2023-01-29T13:08:19.966Z,-0.80
2023-01-29T13:10:54.061Z,-0.85
2023-01-29T13:13:36.264Z,-0.91
2023-01-29T13:16:11.085Z,-0.96
2023-01-29T13:18:48.173Z,-1.02
2023-01-29T13:21:23.423Z,-1.04
2023-01-29T13:24:04.808Z,-1.06
2023-01-29T13:26:34.594Z,-1.09
2023-01-29T13:29:03.114Z,-1.11
2023-01-29T13:31:37.012Z,-1.14
2023-01-29T13:34:22.397Z,-1.14
2023-01-29T13:36:54.551Z,-1.15
2023-01-29T13:39:25.095Z,-1.17
2023-01-29T13:41:55.659Z,-1.19
2023-01-29T13:44:23.623Z,-1.22
2023-01-29T13:46:58.730Z,-1.25
2023-01-29T13:49:47.365Z,-1.28
2023-01-29T13:52:17.729Z,-1.28
2023-01-29T13:55:15.293Z,-1.28
2023-01-29T13:57:46.387Z,-1.30
2023-01-29T14:00:25.074Z,-1.31
2023-01-29T14:02:56.060Z,-1.33
2023-01-29T14:05:30.150Z,-1.33
2023-01-29T14:08:01.821Z,-1.32
2023-01-29T14:10:31.899Z,-1.31
2023-01-29T14:13:18.429Z,-1.28
2023-01-29T14:16:12.178Z,-1.25
2023-01-29T14:18:49.450Z,-1.23
2023-01-29T14:21:17.366Z,-1.21
2023-01-29T14:23:53.952Z,-1.18
2023-01-29T14:26:28.117Z,-1.14
2023-01-29T14:29:04.982Z,-1.14
2023-01-29T14:31:36.055Z,-1.13
2023-01-29T14:34:14.710Z,-1.16
2023-01-29T14:36:45.138Z,-1.17
2023-01-29T14:39:33.344Z,-1.17
2023-01-29T14:42:06.132Z,-1.22
2023-01-29T14:44:47.473Z,-1.22
2023-01-29T14:47:25.753Z,-1.23
2023-01-29T14:49:57.857Z,-1.24
2023-01-29T14:52:43.468Z,-1.25
2023-01-29T14:55:40.922Z,-1.26
2023-01-29T14:58:19.531Z,-1.27
2023-01-29T15:00:52.945Z,-1.28
2023-01-29T15:03:43.685Z,-1.27
2023-01-29T15:06:18.980Z,-1.28
2023-01-29T15:09:32.710Z,-1.28
2023-01-29T15:12:30.709Z,-1.27
2023-01-29T15:15:07.881Z,-1.27
2023-01-29T15:17:48.013Z,-1.29
2023-01-29T15:20:35.177Z,-1.30
2023-01-29T15:23:05.168Z,-1.31
2023-01-29T15:25:47.749Z,-1.32
2023-01-29T15:28:16.086Z,-1.36
2023-01-29T15:30:45.116Z,-1.40
2023-01-29T15:33:15.080Z,-1.43
2023-01-29T15:35:43.588Z,-1.43
2023-01-29T15:38:20.663Z,-1.41
2023-01-29T15:41:14.965Z,-1.43
2023-01-29T15:43:49.645Z,-1.47
2023-01-29T15:46:27.013Z,-1.50
2023-01-29T15:48:58.108Z,-1.50
2023-01-29T15:51:28.187Z,-1.54
2023-01-29T15:54:01.368Z,-1.57
2023-01-29T15:56:33.337Z,-1.60
2023-01-29T15:59:09.263Z,-1.61
2023-01-29T16:01:37.673Z,-1.63
2023-01-29T16:04:06.315Z,-1.66
2023-01-29T16:06:38.933Z,-1.71
2023-01-29T16:09:07.619Z,-1.75
2023-01-29T16:11:36.253Z,-1.79
2023-01-29T16:14:06.296Z,-1.81
2023-01-29T16:16:34.939Z,-1.81
2023-01-29T16:19:24.377Z,-1.81
2023-01-29T16:21:58.338Z,-1.82
2023-01-29T16:24:27.565Z,-1.83
2023-01-29T16:27:02.536Z,-1.84
2023-01-29T16:29:33.527Z,-1.84
2023-01-29T16:32:03.294Z,-1.82
2023-01-29T16:34:37.756Z,-1.81
2023-01-29T16:37:18.223Z,-1.80
2023-01-29T16:39:48.549Z,-1.80
2023-01-29T16:42:17.520Z,-1.82
2023-01-29T16:44:50.000Z,-1.84
2023-01-29T16:47:27.760Z,-1.87
2023-01-29T16:50:02.324Z,-1.88
2023-01-29T16:52:34.794Z,-1.90
2023-01-29T16:55:21.730Z,-1.91
2023-01-29T16:57:54.172Z,-1.93
2023-01-29T17:00:26.696Z,-1.94
2023-01-29T17:03:07.087Z,-1.95
2023-01-29T17:05:37.941Z,-1.99
2023-01-29T17:08:07.509Z,-2.01
2023-01-29T17:10:36.351Z,-2.04
2023-01-29T17:13:08.554Z,-2.05
2023-01-29T17:15:47.389Z,-2.07
2023-01-29T17:18:22.491Z,-2.09
2023-01-29T17:20:53.110Z,-2.11
2023-01-29T17:23:22.183Z,-2.11
2023-01-29T17:25:50.368Z,-2.12
2023-01-29T17:28:18.686Z,-2.13
2023-01-29T17:31:00.261Z,-2.14
2023-01-29T17:33:35.685Z,-2.17
2023-01-29T17:36:03.996Z,-2.19
2023-01-29T17:38:32.150Z,-2.18
2023-01-29T17:41:18.631Z,-2.18
2023-01-29T17:43:47.031Z,-2.19
2023-01-29T17:46:17.887Z,-2.20
2023-01-29T17:48:46.772Z,-2.20
2023-01-29T17:51:17.308Z,-2.21
2023-01-29T17:53:46.876Z,-2.21
2023-01-29T17:56:18.335Z,-2.22
2023-01-29T17:58:46.441Z,-2.22
2023-01-29T18:01:14.610Z,-2.22
2023-01-29T18:03:42.680Z,-2.24
2023-01-29T18:06:18.655Z,-2.26
2023-01-29T18:08:46.768Z,-2.26
2023-01-29T18:11:14.801Z,-2.26
2023-01-29T18:13:42.800Z,-2.27
2023-01-29T18:16:10.819Z,-2.28
2023-01-29T18:18:39.466Z,-2.28
2023-01-29T18:21:08.120Z,-2.28
2023-01-29T18:23:36.274Z,-2.26
2023-01-29T18:26:04.558Z,-2.25
2023-01-29T18:28:32.514Z,-2.25
2023-01-29T18:31:05.667Z,-2.23
2023-01-29T18:33:35.307Z,-2.20
2023-01-29T18:36:06.731Z,-2.17
2023-01-29T18:38:34.807Z,-2.15
2023-01-29T18:41:05.147Z,-2.13
2023-01-29T18:43:33.215Z,-2.12
2023-01-29T18:46:01.349Z,-2.10
2023-01-29T18:48:30.520Z,-2.08
2023-01-29T18:50:59.809Z,-2.07
2023-01-29T18:53:27.966Z,-2.04
2023-01-29T18:56:04.311Z,-2.02
2023-01-29T18:58:36.922Z,-1.99
2023-01-29T19:01:09.799Z,-1.98
2023-01-29T19:03:39.798Z,-1.95
2023-01-29T19:06:10.447Z,-1.95
2023-01-29T19:08:39.573Z,-1.98
2023-01-29T19:11:09.025Z,-2.00
2023-01-29T19:13:38.476Z,-2.00
2023-01-29T19:16:08.304Z,-1.97
2023-01-29T19:18:36.782Z,-1.95
2023-01-29T19:21:13.215Z,-1.96
2023-01-29T19:23:42.747Z,-1.97
2023-01-29T19:26:11.574Z,-1.99
2023-01-29T19:28:39.957Z,-2.01
2023-01-29T19:31:09.315Z,-2.02
2023-01-29T19:33:37.448Z,-2.03
2023-01-29T19:36:06.795Z,-2.03
2023-01-29T19:38:38.749Z,-2.04
2023-01-29T19:41:06.897Z,-2.06
2023-01-29T19:43:35.042Z,-2.08
2023-01-29T19:46:03.089Z,-2.09
2023-01-29T19:48:31.124Z,-2.08
2023-01-29T19:51:01.496Z,-2.09
2023-01-29T19:53:29.640Z,-2.10
2023-01-29T19:56:07.076Z,-2.10
2023-01-29T19:58:35.690Z,-2.12
2023-01-29T20:01:07.443Z,-2.13
2023-01-29T20:03:35.564Z,-2.15
2023-01-29T20:06:06.339Z,-2.18
2023-01-29T20:08:36.430Z,-2.21
2023-01-29T20:11:05.731Z,-2.24
2023-01-29T20:13:33.848Z,-2.28
2023-01-29T20:16:03.935Z,-2.32
2023-01-29T20:18:33.000Z,-2.38
2023-01-29T20:21:07.997Z,-2.42
2023-01-29T20:23:38.705Z,-2.45
2023-01-29T20:26:16.913Z,-2.49
2023-01-29T20:28:47.829Z,-2.52
2023-01-29T20:31:16.654Z,-2.55
2023-01-29T20:33:45.239Z,-2.60
2023-01-29T20:36:14.818Z,-2.64
2023-01-29T20:38:42.962Z,-2.67
2023-01-29T20:41:16.347Z,-2.69
2023-01-29T20:43:45.699Z,-2.70
2023-01-29T20:46:14.265Z,-2.72
2023-01-29T20:48:42.703Z,-2.76
2023-01-29T20:51:15.514Z,-2.82
2023-01-29T20:53:48.378Z,-2.85
2023-01-29T20:56:17.341Z,-2.88
2023-01-29T20:58:47.019Z,-2.90
2023-01-29T21:01:20.943Z,-2.92
2023-01-29T21:03:50.379Z,-2.94
2023-01-29T21:06:18.367Z,-2.96
2023-01-29T21:08:46.552Z,-2.98
2023-01-29T21:11:14.574Z,-3.00
2023-01-29T21:13:44.042Z,-3.02
2023-01-29T21:16:13.123Z,-3.05
2023-01-29T21:18:42.910Z,-3.07
2023-01-29T21:21:11.107Z,-3.08
2023-01-29T21:23:39.588Z,-3.09
2023-01-29T21:26:08.309Z,-3.11
2023-01-29T21:28:37.710Z,-3.12
2023-01-29T21:31:13.720Z,-3.13
2023-01-29T21:33:43.744Z,-3.14
2023-01-29T21:36:12.705Z,-3.16
2023-01-29T21:38:41.005Z,-3.16
2023-01-29T21:41:09.835Z,-3.17
2023-01-29T21:43:39.062Z,-3.22
2023-01-29T21:46:12.148Z,-3.28
2023-01-29T21:48:41.111Z,-3.33
2023-01-29T21:51:09.372Z,-3.36
2023-01-29T21:53:37.383Z,-3.36
2023-01-29T21:56:06.239Z,-3.37
2023-01-29T21:58:34.482Z,-3.39
2023-01-29T22:01:12.621Z,-3.40
2023-01-29T22:03:52.199Z,-3.39
2023-01-29T22:06:20.564Z,-3.39
2023-01-29T22:08:49.686Z,-3.39
2023-01-29T22:11:18.782Z,-3.41
2023-01-29T22:13:49.561Z,-3.40
2023-01-29T22:16:18.025Z,-3.38
2023-01-29T22:18:46.176Z,-3.38
2023-01-29T22:21:14.426Z,-3.39
2023-01-29T22:23:43.100Z,-3.39
2023-01-29T22:26:14.554Z,-3.39
2023-01-29T22:28:46.429Z,-3.39
2023-01-29T22:31:15.713Z,-3.39
2023-01-29T22:33:43.692Z,-3.38
2023-01-29T22:36:12.881Z,-3.39
2023-01-29T22:38:46.446Z,-3.39
2023-01-29T22:41:18.156Z,-3.39
2023-01-29T22:43:46.376Z,-3.39
2023-01-29T22:46:14.443Z,-3.39
2023-01-29T22:48:42.997Z,-3.39
2023-01-29T22:51:12.112Z,-3.39
2023-01-29T22:53:44.261Z,-3.38
2023-01-29T22:56:12.615Z,-3.38
2023-01-29T22:58:41.279Z,-3.37
2023-01-29T23:01:09.974Z,-3.36
2023-01-29T23:03:37.945Z,-3.35
2023-01-29T23:06:05.994Z,-3.35
2023-01-29T23:08:34.159Z,-3.36
2023-01-29T23:11:17.837Z,-3.36
2023-01-29T23:13:55.665Z,-3.36
2023-01-29T23:16:27.651Z,-3.35
2023-01-29T23:18:57.183Z,-3.34
2023-01-29T23:21:27.713Z,-3.33
2023-01-29T23:23:58.433Z,-3.34
2023-01-29T23:26:47.191Z,-3.33
2023-01-29T23:29:15.233Z,-3.33
2023-01-29T23:31:43.324Z,-3.32
2023-01-29T23:34:11.459Z,-3.31
2023-01-29T23:36:39.855Z,-3.31
2023-01-29T23:39:08.044Z,-3.30
2023-01-29T23:41:36.546Z,-3.30
2023-01-29T23:44:04.939Z,-3.28
2023-01-29T23:46:33.068Z,-3.26
2023-01-29T23:49:01.415Z,-3.27
2023-01-29T23:51:29.529Z,-3.26
2023-01-29T23:53:58.008Z,-3.27
2023-01-29T23:56:26.138Z,-3.27
2023-01-29T23:58:55.641Z,-3.28
